sensor_id;sensor_type;location;lat;lon;timestamp;temperature;humidity
10447;DHT22;5271;44.422;26.092;2023-02-01T00:02:09;8.90;90.90
10447;DHT22;5271;44.422;26.092;2023-02-01T00:04:35;8.90;90.90
10447;DHT22;5271;44.422;26.092;2023-02-01T00:07:02;8.80;91.00
10447;DHT22;5271;44.422;26.092;2023-02-01T00:09:31;8.90;90.90
10447;DHT22;5271;44.422;26.092;2023-02-01T00:11:57;8.90;91.00
10447;DHT22;5271;44.422;26.092;2023-02-01T00:14:27;8.90;90.90
10447;DHT22;5271;44.422;26.092;2023-02-01T00:16:54;8.90;90.90
10447;DHT22;5271;44.422;26.092;2023-02-01T00:19:21;8.90;90.90
10447;DHT22;5271;44.422;26.092;2023-02-01T00:21:48;8.90;91.00
10447;DHT22;5271;44.422;26.092;2023-02-01T00:24:15;9.00;91.00
10447;DHT22;5271;44.422;26.092;2023-02-01T00:26:44;9.00;90.90
10447;DHT22;5271;44.422;26.092;2023-02-01T00:29:13;9.00;90.90
10447;DHT22;5271;44.422;26.092;2023-02-01T00:31:40;9.00;90.90
10447;DHT22;5271;44.422;26.092;2023-02-01T00:34:07;9.00;91.00
10447;DHT22;5271;44.422;26.092;2023-02-01T00:36:35;8.90;90.90
10447;DHT22;5271;44.422;26.092;2023-02-01T00:39:02;9.00;91.30
10447;DHT22;5271;44.422;26.092;2023-02-01T00:41:29;9.00;91.00
10447;DHT22;5271;44.422;26.092;2023-02-01T00:43:57;9.00;91.00
10447;DHT22;5271;44.422;26.092;2023-02-01T00:46:24;9.00;90.90
10447;DHT22;5271;44.422;26.092;2023-02-01T00:48:51;9.00;90.90
10447;DHT22;5271;44.422;26.092;2023-02-01T00:51:21;8.90;91.00
10447;DHT22;5271;44.422;26.092;2023-02-01T00:53:49;8.90;91.00
10447;DHT22;5271;44.422;26.092;2023-02-01T00:56:16;8.90;91.00
10447;DHT22;5271;44.422;26.092;2023-02-01T00:58:43;8.90;91.10
10447;DHT22;5271;44.422;26.092;2023-02-01T01:01:13;8.90;91.10
10447;DHT22;5271;44.422;26.092;2023-02-01T01:03:42;8.80;91.00
10447;DHT22;5271;44.422;26.092;2023-02-01T01:06:11;8.80;91.00
10447;DHT22;5271;44.422;26.092;2023-02-01T01:08:39;8.70;91.10
10447;DHT22;5271;44.422;26.092;2023-02-01T01:11:07;8.80;91.10
10447;DHT22;5271;44.422;26.092;2023-02-01T01:13:34;8.80;91.10
10447;DHT22;5271;44.422;26.092;2023-02-01T01:16:01;8.80;91.10
10447;DHT22;5271;44.422;26.092;2023-02-01T01:18:31;8.80;91.10
10447;DHT22;5271;44.422;26.092;2023-02-01T01:20:58;8.80;91.10
10447;DHT22;5271;44.422;26.092;2023-02-01T01:23:26;8.70;91.10
10447;DHT22;5271;44.422;26.092;2023-02-01T01:25:53;8.70;91.10
10447;DHT22;5271;44.422;26.092;2023-02-01T01:28:20;8.80;91.10
10447;DHT22;5271;44.422;26.092;2023-02-01T01:30:47;8.70;91.10
10447;DHT22;5271;44.422;26.092;2023-02-01T01:33:14;8.80;91.00
10447;DHT22;5271;44.422;26.092;2023-02-01T01:35:42;8.70;91.10
10447;DHT22;5271;44.422;26.092;2023-02-01T01:38:10;8.70;91.20
10447;DHT22;5271;44.422;26.092;2023-02-01T01:40:37;8.60;91.20
10447;DHT22;5271;44.422;26.092;2023-02-01T01:43:12;8.60;91.30
10447;DHT22;5271;44.422;26.092;2023-02-01T01:45:39;8.60;91.30
10447;DHT22;5271;44.422;26.092;2023-02-01T01:48:10;8.50;91.30
10447;DHT22;5271;44.422;26.092;2023-02-01T01:50:45;8.50;91.50
10447;DHT22;5271;44.422;26.092;2023-02-01T01:53:17;8.50;91.50
10447;DHT22;5271;44.422;26.092;2023-02-01T01:55:45;8.50;91.50
10447;DHT22;5271;44.422;26.092;2023-02-01T01:58:17;8.40;91.50
10447;DHT22;5271;44.422;26.092;2023-02-01T02:00:46;8.40;91.50
10447;DHT22;5271;44.422;26.092;2023-02-01T02:03:20;8.40;91.50
10447;DHT22;5271;44.422;26.092;2023-02-01T02:05:50;8.40;91.60
10447;DHT22;5271;44.422;26.092;2023-02-01T02:08:19;8.40;91.50
10447;DHT22;5271;44.422;26.092;2023-02-01T02:10:47;8.40;91.60
10447;DHT22;5271;44.422;26.092;2023-02-01T02:13:28;8.40;91.60
10447;DHT22;5271;44.422;26.092;2023-02-01T02:16:05;8.40;91.60
10447;DHT22;5271;44.422;26.092;2023-02-01T02:18:42;8.40;91.70
10447;DHT22;5271;44.422;26.092;2023-02-01T02:21:18;8.30;91.70
10447;DHT22;5271;44.422;26.092;2023-02-01T02:24:21;8.40;91.70
10447;DHT22;5271;44.422;26.092;2023-02-01T02:27:07;8.30;91.70
10447;DHT22;5271;44.422;26.092;2023-02-01T02:33:17;8.30;91.80
10447;DHT22;5271;44.422;26.092;2023-02-01T02:35:48;8.20;92.10
10447;DHT22;5271;44.422;26.092;2023-02-01T02:38:22;8.10;92.00
10447;DHT22;5271;44.422;26.092;2023-02-01T02:40:57;8.10;92.10
10447;DHT22;5271;44.422;26.092;2023-02-01T02:43:35;8.10;92.20
10447;DHT22;5271;44.422;26.092;2023-02-01T02:46:24;8.00;92.20
10447;DHT22;5271;44.422;26.092;2023-02-01T02:49:13;8.00;92.40
10447;DHT22;5271;44.422;26.092;2023-02-01T02:51:45;8.00;92.50
10447;DHT22;5271;44.422;26.092;2023-02-01T02:54:33;7.90;92.70
10447;DHT22;5271;44.422;26.092;2023-02-01T02:57:20;7.80;93.00
10447;DHT22;5271;44.422;26.092;2023-02-01T03:00:08;7.80;93.50
10447;DHT22;5271;44.422;26.092;2023-02-01T03:02:54;7.80;93.00
10447;DHT22;5271;44.422;26.092;2023-02-01T03:05:43;7.80;92.90
10447;DHT22;5271;44.422;26.092;2023-02-01T03:08:11;7.90;93.00
10447;DHT22;5271;44.422;26.092;2023-02-01T03:10:47;7.90;92.80
10447;DHT22;5271;44.422;26.092;2023-02-01T03:13:21;7.90;92.90
10447;DHT22;5271;44.422;26.092;2023-02-01T03:15:53;7.90;93.20
10447;DHT22;5271;44.422;26.092;2023-02-01T03:18:28;7.80;93.10
10447;DHT22;5271;44.422;26.092;2023-02-01T03:20:59;7.90;93.30
10447;DHT22;5271;44.422;26.092;2023-02-01T03:23:31;7.90;93.20
10447;DHT22;5271;44.422;26.092;2023-02-01T03:26:02;7.80;93.20
10447;DHT22;5271;44.422;26.092;2023-02-01T03:28:31;7.90;93.10
10447;DHT22;5271;44.422;26.092;2023-02-01T03:31:00;7.90;93.30
10447;DHT22;5271;44.422;26.092;2023-02-01T03:33:28;7.90;93.20
10447;DHT22;5271;44.422;26.092;2023-02-01T03:36:05;7.90;93.40
10447;DHT22;5271;44.422;26.092;2023-02-01T03:38:39;7.90;93.40
10447;DHT22;5271;44.422;26.092;2023-02-01T03:41:13;7.80;93.50
10447;DHT22;5271;44.422;26.092;2023-02-01T03:43:49;7.90;93.60
10447;DHT22;5271;44.422;26.092;2023-02-01T03:46:23;7.90;93.30
10447;DHT22;5271;44.422;26.092;2023-02-01T03:48:53;7.90;93.30
10447;DHT22;5271;44.422;26.092;2023-02-01T03:51:23;8.00;93.40
10447;DHT22;5271;44.422;26.092;2023-02-01T03:53:52;8.00;93.70
10447;DHT22;5271;44.422;26.092;2023-02-01T03:56:21;7.90;94.00
10447;DHT22;5271;44.422;26.092;2023-02-01T03:58:49;7.90;93.90
10447;DHT22;5271;44.422;26.092;2023-02-01T04:01:26;7.90;94.10
10447;DHT22;5271;44.422;26.092;2023-02-01T04:03:53;7.90;94.00
10447;DHT22;5271;44.422;26.092;2023-02-01T04:06:22;7.90;93.90
10447;DHT22;5271;44.422;26.092;2023-02-01T04:08:50;7.90;94.00
10447;DHT22;5271;44.422;26.092;2023-02-01T04:11:17;7.90;93.90
10447;DHT22;5271;44.422;26.092;2023-02-01T04:13:44;7.90;94.00
10447;DHT22;5271;44.422;26.092;2023-02-01T04:16:11;7.90;94.10
10447;DHT22;5271;44.422;26.092;2023-02-01T04:18:38;7.90;94.20
10447;DHT22;5271;44.422;26.092;2023-02-01T04:21:05;7.90;94.40
10447;DHT22;5271;44.422;26.092;2023-02-01T04:23:33;7.90;94.20
10447;DHT22;5271;44.422;26.092;2023-02-01T04:26:03;7.90;94.20
10447;DHT22;5271;44.422;26.092;2023-02-01T04:28:30;8.00;94.10
10447;DHT22;5271;44.422;26.092;2023-02-01T04:30:57;8.00;94.00
10447;DHT22;5271;44.422;26.092;2023-02-01T04:33:24;8.00;94.10
10447;DHT22;5271;44.422;26.092;2023-02-01T04:35:51;8.00;94.30
10447;DHT22;5271;44.422;26.092;2023-02-01T04:38:18;8.00;94.20
10447;DHT22;5271;44.422;26.092;2023-02-01T04:40:48;8.00;94.20
10447;DHT22;5271;44.422;26.092;2023-02-01T04:43:15;8.00;94.20
10447;DHT22;5271;44.422;26.092;2023-02-01T04:45:46;8.00;94.40
10447;DHT22;5271;44.422;26.092;2023-02-01T04:48:13;8.00;94.30
10447;DHT22;5271;44.422;26.092;2023-02-01T04:50:40;8.10;94.40
10447;DHT22;5271;44.422;26.092;2023-02-01T04:53:07;8.00;94.40
10447;DHT22;5271;44.422;26.092;2023-02-01T04:55:34;8.00;94.50
10447;DHT22;5271;44.422;26.092;2023-02-01T04:58:02;8.00;94.60
10447;DHT22;5271;44.422;26.092;2023-02-01T05:00:29;8.10;94.70
10447;DHT22;5271;44.422;26.092;2023-02-01T05:02:56;8.10;94.60
10447;DHT22;5271;44.422;26.092;2023-02-01T05:05:23;8.10;94.50
10447;DHT22;5271;44.422;26.092;2023-02-01T05:07:50;8.20;94.30
10447;DHT22;5271;44.422;26.092;2023-02-01T05:10:17;8.20;94.30
10447;DHT22;5271;44.422;26.092;2023-02-01T05:12:44;8.20;94.30
10447;DHT22;5271;44.422;26.092;2023-02-01T05:15:30;8.20;94.40
10447;DHT22;5271;44.422;26.092;2023-02-01T05:17:57;8.20;94.40
10447;DHT22;5271;44.422;26.092;2023-02-01T05:20:25;8.20;94.60
10447;DHT22;5271;44.422;26.092;2023-02-01T05:22:52;8.20;94.50
10447;DHT22;5271;44.422;26.092;2023-02-01T05:25:18;8.20;94.70
10447;DHT22;5271;44.422;26.092;2023-02-01T05:27:45;8.20;94.50
10447;DHT22;5271;44.422;26.092;2023-02-01T05:30:13;8.20;94.40
10447;DHT22;5271;44.422;26.092;2023-02-01T05:32:41;8.20;94.50
10447;DHT22;5271;44.422;26.092;2023-02-01T05:35:08;8.20;94.40
10447;DHT22;5271;44.422;26.092;2023-02-01T05:37:35;8.20;94.50
10447;DHT22;5271;44.422;26.092;2023-02-01T05:40:03;8.20;94.60
10447;DHT22;5271;44.422;26.092;2023-02-01T05:42:30;8.00;94.80
10447;DHT22;5271;44.422;26.092;2023-02-01T05:44:57;8.00;94.70
10447;DHT22;5271;44.422;26.092;2023-02-01T05:47:23;8.00;94.60
10447;DHT22;5271;44.422;26.092;2023-02-01T05:49:52;8.00;94.80
10447;DHT22;5271;44.422;26.092;2023-02-01T05:52:18;8.10;94.70
10447;DHT22;5271;44.422;26.092;2023-02-01T05:54:46;8.10;95.00
10447;DHT22;5271;44.422;26.092;2023-02-01T05:57:13;8.10;94.90
10447;DHT22;5271;44.422;26.092;2023-02-01T05:59:40;8.10;94.80
10447;DHT22;5271;44.422;26.092;2023-02-01T06:02:10;8.10;95.20
10447;DHT22;5271;44.422;26.092;2023-02-01T06:04:37;8.10;94.90
10447;DHT22;5271;44.422;26.092;2023-02-01T06:07:06;8.10;95.00
10447;DHT22;5271;44.422;26.092;2023-02-01T06:09:35;8.10;95.00
10447;DHT22;5271;44.422;26.092;2023-02-01T06:12:02;8.10;95.00
10447;DHT22;5271;44.422;26.092;2023-02-01T06:14:29;8.10;95.10
10447;DHT22;5271;44.422;26.092;2023-02-01T06:16:56;8.10;95.00
10447;DHT22;5271;44.422;26.092;2023-02-01T06:19:23;8.10;95.10
10447;DHT22;5271;44.422;26.092;2023-02-01T06:21:50;8.10;95.10
10447;DHT22;5271;44.422;26.092;2023-02-01T06:24:18;8.10;95.20
10447;DHT22;5271;44.422;26.092;2023-02-01T06:26:45;8.10;95.20
10447;DHT22;5271;44.422;26.092;2023-02-01T06:29:13;8.10;95.30
10447;DHT22;5271;44.422;26.092;2023-02-01T06:31:40;8.10;95.10
10447;DHT22;5271;44.422;26.092;2023-02-01T06:34:08;8.00;95.30
10447;DHT22;5271;44.422;26.092;2023-02-01T06:36:35;8.00;95.30
10447;DHT22;5271;44.422;26.092;2023-02-01T06:39:02;8.00;95.40
10447;DHT22;5271;44.422;26.092;2023-02-01T06:41:30;8.10;95.60
10447;DHT22;5271;44.422;26.092;2023-02-01T06:44:00;8.10;95.40
10447;DHT22;5271;44.422;26.092;2023-02-01T06:46:26;8.10;95.50
10447;DHT22;5271;44.422;26.092;2023-02-01T06:48:53;8.10;95.40
10447;DHT22;5271;44.422;26.092;2023-02-01T06:51:23;8.10;95.50
10447;DHT22;5271;44.422;26.092;2023-02-01T06:53:50;8.10;95.40
10447;DHT22;5271;44.422;26.092;2023-02-01T06:56:17;8.10;95.50
10447;DHT22;5271;44.422;26.092;2023-02-01T06:58:45;8.20;95.50
10447;DHT22;5271;44.422;26.092;2023-02-01T07:01:13;8.20;95.30
10447;DHT22;5271;44.422;26.092;2023-02-01T07:03:40;8.20;95.40
10447;DHT22;5271;44.422;26.092;2023-02-01T07:06:08;8.20;95.40
10447;DHT22;5271;44.422;26.092;2023-02-01T07:08:37;8.20;95.30
10447;DHT22;5271;44.422;26.092;2023-02-01T07:11:05;8.20;95.70
10447;DHT22;5271;44.422;26.092;2023-02-01T07:13:32;8.20;95.60
10447;DHT22;5271;44.422;26.092;2023-02-01T07:16:01;8.20;95.60
10447;DHT22;5271;44.422;26.092;2023-02-01T07:18:30;8.20;95.50
10447;DHT22;5271;44.422;26.092;2023-02-01T07:20:58;8.20;95.50
10447;DHT22;5271;44.422;26.092;2023-02-01T07:23:25;8.20;95.60
10447;DHT22;5271;44.422;26.092;2023-02-01T07:25:54;8.20;95.40
10447;DHT22;5271;44.422;26.092;2023-02-01T07:28:21;8.30;95.50
10447;DHT22;5271;44.422;26.092;2023-02-01T07:30:48;8.30;95.50
10447;DHT22;5271;44.422;26.092;2023-02-01T07:33:18;8.30;95.60
10447;DHT22;5271;44.422;26.092;2023-02-01T07:35:45;8.30;95.50
10447;DHT22;5271;44.422;26.092;2023-02-01T07:38:12;8.30;95.60
10447;DHT22;5271;44.422;26.092;2023-02-01T07:40:39;8.20;95.50
10447;DHT22;5271;44.422;26.092;2023-02-01T07:43:06;8.30;95.50
10447;DHT22;5271;44.422;26.092;2023-02-01T07:45:34;8.30;95.40
10447;DHT22;5271;44.422;26.092;2023-02-01T07:48:01;8.30;95.40
10447;DHT22;5271;44.422;26.092;2023-02-01T07:50:30;8.20;95.40
10447;DHT22;5271;44.422;26.092;2023-02-01T07:52:59;8.20;95.40
10447;DHT22;5271;44.422;26.092;2023-02-01T07:55:26;8.30;95.30
10447;DHT22;5271;44.422;26.092;2023-02-01T07:57:56;8.30;95.10
10447;DHT22;5271;44.422;26.092;2023-02-01T08:00:23;8.30;95.00
10447;DHT22;5271;44.422;26.092;2023-02-01T08:03:19;8.30;94.90
10447;DHT22;5271;44.422;26.092;2023-02-01T08:05:47;8.20;95.20
10447;DHT22;5271;44.422;26.092;2023-02-01T08:08:14;8.10;95.10
10447;DHT22;5271;44.422;26.092;2023-02-01T08:10:41;8.20;95.10
10447;DHT22;5271;44.422;26.092;2023-02-01T08:13:08;8.30;95.20
10447;DHT22;5271;44.422;26.092;2023-02-01T08:15:35;8.30;95.40
10447;DHT22;5271;44.422;26.092;2023-02-01T08:18:02;8.40;95.30
10447;DHT22;5271;44.422;26.092;2023-02-01T08:20:30;8.50;95.50
10447;DHT22;5271;44.422;26.092;2023-02-01T08:22:58;8.50;95.40
10447;DHT22;5271;44.422;26.092;2023-02-01T08:25:25;8.70;95.40
10447;DHT22;5271;44.422;26.092;2023-02-01T08:27:53;8.90;95.40
10447;DHT22;5271;44.422;26.092;2023-02-01T08:30:20;9.10;95.20
10447;DHT22;5271;44.422;26.092;2023-02-01T08:32:48;9.20;94.90
10447;DHT22;5271;44.422;26.092;2023-02-01T08:35:15;9.30;94.60
10447;DHT22;5271;44.422;26.092;2023-02-01T08:37:42;9.30;94.50
10447;DHT22;5271;44.422;26.092;2023-02-01T08:40:11;9.30;94.40
10447;DHT22;5271;44.422;26.092;2023-02-01T08:42:39;9.30;94.40
10447;DHT22;5271;44.422;26.092;2023-02-01T08:45:19;9.30;94.40
10447;DHT22;5271;44.422;26.092;2023-02-01T08:47:47;9.20;94.40
10447;DHT22;5271;44.422;26.092;2023-02-01T08:50:14;9.10;94.30
10447;DHT22;5271;44.422;26.092;2023-02-01T08:52:41;9.00;94.60
10447;DHT22;5271;44.422;26.092;2023-02-01T08:55:10;9.10;95.00
10447;DHT22;5271;44.422;26.092;2023-02-01T08:57:37;9.10;94.90
10447;DHT22;5271;44.422;26.092;2023-02-01T09:00:07;9.30;95.10
10447;DHT22;5271;44.422;26.092;2023-02-01T09:02:35;9.70;95.10
10447;DHT22;5271;44.422;26.092;2023-02-01T09:05:02;10.10;94.90
10447;DHT22;5271;44.422;26.092;2023-02-01T09:07:29;10.30;94.40
10447;DHT22;5271;44.422;26.092;2023-02-01T09:09:56;10.40;93.90
10447;DHT22;5271;44.422;26.092;2023-02-01T09:12:27;10.40;93.50
10447;DHT22;5271;44.422;26.092;2023-02-01T09:14:55;10.30;93.40
10447;DHT22;5271;44.422;26.092;2023-02-01T09:17:22;10.20;93.80
10447;DHT22;5271;44.422;26.092;2023-02-01T09:19:49;10.20;93.50
10447;DHT22;5271;44.422;26.092;2023-02-01T09:22:15;10.20;93.50
10447;DHT22;5271;44.422;26.092;2023-02-01T09:24:43;10.00;93.50
10447;DHT22;5271;44.422;26.092;2023-02-01T09:27:09;10.00;93.80
10447;DHT22;5271;44.422;26.092;2023-02-01T09:29:38;9.90;93.90
10447;DHT22;5271;44.422;26.092;2023-02-01T09:32:05;9.90;93.90
10447;DHT22;5271;44.422;26.092;2023-02-01T09:34:32;9.90;94.00
10447;DHT22;5271;44.422;26.092;2023-02-01T09:36:59;9.90;94.00
10447;DHT22;5271;44.422;26.092;2023-02-01T09:39:26;10.00;94.10
10447;DHT22;5271;44.422;26.092;2023-02-01T09:41:59;9.90;94.00
10447;DHT22;5271;44.422;26.092;2023-02-01T09:44:45;9.80;94.20
10447;DHT22;5271;44.422;26.092;2023-02-01T09:47:17;9.70;94.30
10447;DHT22;5271;44.422;26.092;2023-02-01T09:49:51;9.70;94.30
10447;DHT22;5271;44.422;26.092;2023-02-01T09:52:24;9.70;94.40
10447;DHT22;5271;44.422;26.092;2023-02-01T09:54:55;9.70;94.40
10447;DHT22;5271;44.422;26.092;2023-02-01T09:57:31;9.70;94.40
10447;DHT22;5271;44.422;26.092;2023-02-01T10:00:04;9.70;94.50
10447;DHT22;5271;44.422;26.092;2023-02-01T10:02:39;9.60;94.60
10447;DHT22;5271;44.422;26.092;2023-02-01T10:05:13;9.50;94.70
10447;DHT22;5271;44.422;26.092;2023-02-01T10:07:48;9.50;94.80
10447;DHT22;5271;44.422;26.092;2023-02-01T10:10:20;9.50;94.80
10447;DHT22;5271;44.422;26.092;2023-02-01T10:13:01;9.60;94.70
10447;DHT22;5271;44.422;26.092;2023-02-01T10:15:48;9.60;94.60
10447;DHT22;5271;44.422;26.092;2023-02-01T10:18:34;9.70;94.80
10447;DHT22;5271;44.422;26.092;2023-02-01T10:21:12;9.80;94.50
10447;DHT22;5271;44.422;26.092;2023-02-01T10:24:02;10.10;94.80
10447;DHT22;5271;44.422;26.092;2023-02-01T10:26:38;11.20;96.90
10447;DHT22;5271;44.422;26.092;2023-02-01T10:29:14;12.30;93.60
10447;DHT22;5271;44.422;26.092;2023-02-01T10:31:43;12.90;91.80
10447;DHT22;5271;44.422;26.092;2023-02-01T10:34:17;13.90;91.10
10447;DHT22;5271;44.422;26.092;2023-02-01T10:36:52;15.10;91.20
10447;DHT22;5271;44.422;26.092;2023-02-01T10:39:20;16.50;88.10
10447;DHT22;5271;44.422;26.092;2023-02-01T10:41:48;17.60;85.50
10447;DHT22;5271;44.422;26.092;2023-02-01T10:44:16;18.60;84.60
10447;DHT22;5271;44.422;26.092;2023-02-01T10:46:45;19.60;80.50
10447;DHT22;5271;44.422;26.092;2023-02-01T10:49:17;20.20;77.00
10447;DHT22;5271;44.422;26.092;2023-02-01T10:51:47;20.60;70.40
10447;DHT22;5271;44.422;26.092;2023-02-01T10:54:18;20.70;70.40
10447;DHT22;5271;44.422;26.092;2023-02-01T10:56:47;21.00;72.80
10447;DHT22;5271;44.422;26.092;2023-02-01T10:59:17;21.60;72.90
10447;DHT22;5271;44.422;26.092;2023-02-01T11:01:48;21.70;66.00
10447;DHT22;5271;44.422;26.092;2023-02-01T11:04:16;21.60;67.30
10447;DHT22;5271;44.422;26.092;2023-02-01T11:06:47;21.90;68.20
10447;DHT22;5271;44.422;26.092;2023-02-01T11:09:19;22.30;67.60
10447;DHT22;5271;44.422;26.092;2023-02-01T11:11:56;22.10;65.10
10447;DHT22;5271;44.422;26.092;2023-02-01T11:14:32;21.90;67.80
10447;DHT22;5271;44.422;26.092;2023-02-01T11:17:17;21.30;66.00
10447;DHT22;5271;44.422;26.092;2023-02-01T11:19:46;20.40;67.50
10447;DHT22;5271;44.422;26.092;2023-02-01T11:22:13;19.40;68.50
10447;DHT22;5271;44.422;26.092;2023-02-01T11:24:44;18.50;69.00
10447;DHT22;5271;44.422;26.092;2023-02-01T11:27:15;17.60;69.30
10447;DHT22;5271;44.422;26.092;2023-02-01T11:29:45;16.90;71.30
10447;DHT22;5271;44.422;26.092;2023-02-01T11:32:17;16.00;72.40
10447;DHT22;5271;44.422;26.092;2023-02-01T11:34:48;15.40;73.60
10447;DHT22;5271;44.422;26.092;2023-02-01T11:37:18;14.70;74.70
10447;DHT22;5271;44.422;26.092;2023-02-01T11:39:54;14.30;76.00
10447;DHT22;5271;44.422;26.092;2023-02-01T11:42:21;14.10;76.70
10447;DHT22;5271;44.422;26.092;2023-02-01T11:44:48;13.90;77.50
10447;DHT22;5271;44.422;26.092;2023-02-01T11:47:22;13.60;78.10
10447;DHT22;5271;44.422;26.092;2023-02-01T11:49:51;13.40;79.00
10447;DHT22;5271;44.422;26.092;2023-02-01T11:52:29;13.30;80.10
10447;DHT22;5271;44.422;26.092;2023-02-01T11:55:11;13.20;80.20
10447;DHT22;5271;44.422;26.092;2023-02-01T11:57:50;13.00;80.40
10447;DHT22;5271;44.422;26.092;2023-02-01T12:03:50;13.20;81.80
10447;DHT22;5271;44.422;26.092;2023-02-01T12:06:28;13.90;80.00
10447;DHT22;5271;44.422;26.092;2023-02-01T12:09:05;14.50;78.60
10447;DHT22;5271;44.422;26.092;2023-02-01T12:11:46;15.00;77.80
10447;DHT22;5271;44.422;26.092;2023-02-01T12:14:27;15.10;75.70
10447;DHT22;5271;44.422;26.092;2023-02-01T12:17:17;15.10;76.20
10447;DHT22;5271;44.422;26.092;2023-02-01T12:19:59;14.70;76.40
10447;DHT22;5271;44.422;26.092;2023-02-01T12:22:35;14.40;77.40
10447;DHT22;5271;44.422;26.092;2023-02-01T12:25:25;14.20;78.00
10447;DHT22;5271;44.422;26.092;2023-02-01T12:28:23;14.10;77.90
10447;DHT22;5271;44.422;26.092;2023-02-01T12:31:12;13.90;78.00
10447;DHT22;5271;44.422;26.092;2023-02-01T12:33:57;13.60;78.70
10447;DHT22;5271;44.422;26.092;2023-02-01T12:36:35;13.20;79.40
10447;DHT22;5271;44.422;26.092;2023-02-01T12:39:13;12.90;80.10
10447;DHT22;5271;44.422;26.092;2023-02-01T12:41:48;12.70;80.40
10447;DHT22;5271;44.422;26.092;2023-02-01T12:44:31;12.50;80.60
10447;DHT22;5271;44.422;26.092;2023-02-01T12:47:04;12.40;80.70
10447;DHT22;5271;44.422;26.092;2023-02-01T12:49:40;12.30;81.10
10447;DHT22;5271;44.422;26.092;2023-02-01T12:52:15;12.10;81.90
10447;DHT22;5271;44.422;26.092;2023-02-01T12:54:48;12.00;81.80
10447;DHT22;5271;44.422;26.092;2023-02-01T12:57:18;12.00;82.10
10447;DHT22;5271;44.422;26.092;2023-02-01T12:59:52;11.90;82.30
10447;DHT22;5271;44.422;26.092;2023-02-01T13:02:27;12.00;82.20
10447;DHT22;5271;44.422;26.092;2023-02-01T13:04:59;11.90;80.80
10447;DHT22;5271;44.422;26.092;2023-02-01T13:07:33;11.80;80.90
10447;DHT22;5271;44.422;26.092;2023-02-01T13:10:12;11.80;81.10
10447;DHT22;5271;44.422;26.092;2023-02-01T13:12:44;11.70;80.80
10447;DHT22;5271;44.422;26.092;2023-02-01T13:15:17;11.70;80.80
10447;DHT22;5271;44.422;26.092;2023-02-01T13:17:46;11.70;81.10
10447;DHT22;5271;44.422;26.092;2023-02-01T13:20:19;11.60;81.10
10447;DHT22;5271;44.422;26.092;2023-02-01T13:22:53;11.40;81.50
10447;DHT22;5271;44.422;26.092;2023-02-01T13:25:30;11.40;82.10
10447;DHT22;5271;44.422;26.092;2023-02-01T13:28:04;11.40;82.60
10447;DHT22;5271;44.422;26.092;2023-02-01T13:30:43;11.30;83.40
10447;DHT22;5271;44.422;26.092;2023-02-01T13:33:38;11.20;83.90
10447;DHT22;5271;44.422;26.092;2023-02-01T13:36:42;11.10;84.30
10447;DHT22;5271;44.422;26.092;2023-02-01T13:39:33;11.10;85.00
10447;DHT22;5271;44.422;26.092;2023-02-01T13:42:03;11.00;85.90
10447;DHT22;5271;44.422;26.092;2023-02-01T13:44:34;10.90;85.50
10447;DHT22;5271;44.422;26.092;2023-02-01T13:47:12;10.90;85.40
10447;DHT22;5271;44.422;26.092;2023-02-01T13:49:40;10.80;85.70
10447;DHT22;5271;44.422;26.092;2023-02-01T13:52:24;10.80;86.20
10447;DHT22;5271;44.422;26.092;2023-02-01T13:57:51;10.80;85.50
10447;DHT22;5271;44.422;26.092;2023-02-01T14:00:27;10.70;85.50
10447;DHT22;5271;44.422;26.092;2023-02-01T14:03:17;10.70;85.50
10447;DHT22;5271;44.422;26.092;2023-02-01T14:06:16;10.70;86.20
10447;DHT22;5271;44.422;26.092;2023-02-01T14:08:46;10.70;86.60
10447;DHT22;5271;44.422;26.092;2023-02-01T14:11:43;10.90;86.20
10447;DHT22;5271;44.422;26.092;2023-02-01T14:14:44;10.90;86.30
10447;DHT22;5271;44.422;26.092;2023-02-01T14:17:35;11.00;85.90
10447;DHT22;5271;44.422;26.092;2023-02-01T14:26:17;10.90;84.50
10447;DHT22;5271;44.422;26.092;2023-02-01T14:28:55;10.80;84.70
10447;DHT22;5271;44.422;26.092;2023-02-01T14:32:03;10.80;84.70
10447;DHT22;5271;44.422;26.092;2023-02-01T14:34:35;10.90;84.80
10447;DHT22;5271;44.422;26.092;2023-02-01T14:37:10;10.90;84.70
10447;DHT22;5271;44.422;26.092;2023-02-01T14:39:53;10.90;84.80
10447;DHT22;5271;44.422;26.092;2023-02-01T14:42:25;10.80;84.50
10447;DHT22;5271;44.422;26.092;2023-02-01T14:44:55;10.70;84.40
10447;DHT22;5271;44.422;26.092;2023-02-01T14:47:33;10.70;85.00
10447;DHT22;5271;44.422;26.092;2023-02-01T14:50:17;10.70;85.00
10447;DHT22;5271;44.422;26.092;2023-02-01T14:52:47;10.70;85.20
10447;DHT22;5271;44.422;26.092;2023-02-01T14:55:19;10.70;85.50
10447;DHT22;5271;44.422;26.092;2023-02-01T14:57:50;10.70;85.70
10447;DHT22;5271;44.422;26.092;2023-02-01T15:00:23;10.70;85.70
10447;DHT22;5271;44.422;26.092;2023-02-01T15:02:51;10.80;85.40
10447;DHT22;5271;44.422;26.092;2023-02-01T15:05:29;10.80;85.40
10447;DHT22;5271;44.422;26.092;2023-02-01T15:08:03;10.70;85.40
10447;DHT22;5271;44.422;26.092;2023-02-01T15:10:33;10.80;85.60
10447;DHT22;5271;44.422;26.092;2023-02-01T15:13:05;10.80;85.70
10447;DHT22;5271;44.422;26.092;2023-02-01T15:15:33;10.70;85.70
10447;DHT22;5271;44.422;26.092;2023-02-01T15:18:01;10.70;85.60
10447;DHT22;5271;44.422;26.092;2023-02-01T15:20:30;10.70;85.80
10447;DHT22;5271;44.422;26.092;2023-02-01T15:22:59;10.70;85.60
10447;DHT22;5271;44.422;26.092;2023-02-01T15:25:28;10.70;85.40
10447;DHT22;5271;44.422;26.092;2023-02-01T15:27:56;10.50;85.30
10447;DHT22;5271;44.422;26.092;2023-02-01T15:30:25;10.40;84.20
10447;DHT22;5271;44.422;26.092;2023-02-01T15:33:04;10.40;84.20
10447;DHT22;5271;44.422;26.092;2023-02-01T15:35:41;10.30;84.90
10447;DHT22;5271;44.422;26.092;2023-02-01T15:38:30;10.30;84.70
10447;DHT22;5271;44.422;26.092;2023-02-01T15:40:59;10.30;84.80
10447;DHT22;5271;44.422;26.092;2023-02-01T15:43:28;10.30;84.70
10447;DHT22;5271;44.422;26.092;2023-02-01T15:45:57;10.20;84.90
10447;DHT22;5271;44.422;26.092;2023-02-01T15:48:27;10.20;85.20
10447;DHT22;5271;44.422;26.092;2023-02-01T15:50:55;10.30;85.40
10447;DHT22;5271;44.422;26.092;2023-02-01T15:53:24;10.30;85.20
10447;DHT22;5271;44.422;26.092;2023-02-01T15:55:56;10.20;84.80
10447;DHT22;5271;44.422;26.092;2023-02-01T15:58:26;10.20;84.80
10447;DHT22;5271;44.422;26.092;2023-02-01T16:00:54;10.20;84.90
10447;DHT22;5271;44.422;26.092;2023-02-01T16:03:36;10.20;84.90
10447;DHT22;5271;44.422;26.092;2023-02-01T16:06:05;10.20;84.60
10447;DHT22;5271;44.422;26.092;2023-02-01T16:08:33;10.20;84.70
10447;DHT22;5271;44.422;26.092;2023-02-01T16:11:21;10.20;84.60
10447;DHT22;5271;44.422;26.092;2023-02-01T16:13:49;10.20;84.90
10447;DHT22;5271;44.422;26.092;2023-02-01T16:16:15;10.20;84.70
10447;DHT22;5271;44.422;26.092;2023-02-01T16:18:44;10.20;84.70
10447;DHT22;5271;44.422;26.092;2023-02-01T16:21:11;10.30;84.80
10447;DHT22;5271;44.422;26.092;2023-02-01T16:23:38;10.30;84.30
10447;DHT22;5271;44.422;26.092;2023-02-01T16:26:05;10.30;84.10